createdAt,value
2018-05-29T00:00:40.911Z,97236.00
2018-05-29T00:03:08.351Z,97237.45
2018-05-29T00:05:35.936Z,97234.05
2018-05-29T00:08:03.367Z,97227.76
2018-05-29T00:10:30.785Z,97230.61
2018-05-29T00:12:58.225Z,97227.01
2018-05-29T00:15:25.656Z,97233.14
2018-05-29T00:17:53.225Z,97231.19
2018-05-29T00:20:20.654Z,97232.31
2018-05-29T00:22:49.913Z,97234.55
2018-05-29T00:25:17.551Z,97225.77
2018-05-29T00:27:44.985Z,97227.70
2018-05-29T00:30:12.464Z,97228.95
2018-05-29T00:32:40.405Z,97230.35
2018-05-29T00:35:07.889Z,97237.89
2018-05-29T00:37:35.324Z,97232.72
2018-05-29T00:40:02.799Z,97231.59
2018-05-29T00:42:30.391Z,97235.64
2018-05-29T00:44:57.850Z,97237.59
2018-05-29T00:47:28.271Z,97223.50
2018-05-29T00:49:55.826Z,97228.94
2018-05-29T00:52:23.223Z,97226.85
2018-05-29T00:55:02.644Z,97225.31
2018-05-29T00:57:30.079Z,97226.16
2018-05-29T00:59:57.556Z,97228.41
2018-05-29T01:02:25.008Z,97224.77
2018-05-29T01:04:52.439Z,97224.55
2018-05-29T01:07:19.863Z,97229.59
2018-05-29T01:09:47.441Z,97227.06
2018-05-29T01:12:19.291Z,97232.92
2018-05-29T01:14:46.734Z,97231.34
2018-05-29T01:17:14.770Z,97236.41
2018-05-29T01:19:42.217Z,97233.50
2018-05-29T01:22:09.958Z,97233.99
2018-05-29T01:24:37.420Z,97237.06
2018-05-29T01:27:04.883Z,97230.98
2018-05-29T01:29:32.284Z,97238.81
2018-05-29T01:31:59.724Z,97241.51
2018-05-29T01:34:28.465Z,97232.10
2018-05-29T01:36:57.108Z,97234.75
2018-05-29T01:39:24.593Z,97235.80
2018-05-29T01:41:52.037Z,97242.63
2018-05-29T01:44:19.560Z,97234.18
2018-05-29T01:46:47.005Z,97230.48
2018-05-29T01:49:14.459Z,97237.12
2018-05-29T01:51:41.926Z,97230.78
2018-05-29T01:54:09.384Z,97228.46
2018-05-29T01:56:36.836Z,97230.57
2018-05-29T01:59:04.316Z,97224.64
2018-05-29T02:01:32.472Z,97223.23
2018-05-29T02:03:59.880Z,97221.20
2018-05-29T02:06:27.335Z,97218.14
2018-05-29T02:08:54.768Z,97217.86
2018-05-29T02:11:22.247Z,97213.34
2018-05-29T02:13:49.688Z,97205.38
2018-05-29T02:16:18.982Z,97204.75
2018-05-29T02:18:46.426Z,97206.00
2018-05-29T02:21:13.936Z,97204.73
2018-05-29T02:23:41.528Z,97196.44
2018-05-29T02:26:08.960Z,97194.98
2018-05-29T02:28:36.393Z,97188.20
2018-05-29T02:31:03.829Z,97197.27
2018-05-29T02:33:32.454Z,97198.47
2018-05-29T02:35:59.880Z,97190.36
2018-05-29T02:38:28.800Z,97189.94
2018-05-29T02:40:56.299Z,97186.53
2018-05-29T02:43:23.750Z,97186.13
2018-05-29T02:45:51.310Z,97189.89
2018-05-29T02:48:18.803Z,97181.45
2018-05-29T02:50:46.225Z,97181.98
2018-05-29T02:53:17.329Z,97175.44
2018-05-29T02:55:44.739Z,97175.98
2018-05-29T02:58:12.186Z,97175.78
2018-05-29T03:00:39.730Z,97166.66
2018-05-29T03:03:07.212Z,97172.63
2018-05-29T03:05:34.655Z,97171.47
2018-05-29T03:08:02.917Z,97177.72
2018-05-29T03:10:30.351Z,97182.52
2018-05-29T03:12:57.813Z,97184.38
2018-05-29T03:15:25.310Z,97186.56
2018-05-29T03:17:52.736Z,97180.44
2018-05-29T03:20:21.861Z,97185.79
2018-05-29T03:22:49.274Z,97186.78
2018-05-29T03:25:16.713Z,97178.97
2018-05-29T03:27:44.144Z,97172.63
2018-05-29T03:30:11.660Z,97183.02
2018-05-29T03:32:39.135Z,97182.89
2018-05-29T03:35:06.535Z,97185.12
2018-05-29T03:37:33.980Z,97172.70
2018-05-29T03:40:02.894Z,97177.92
2018-05-29T03:42:31.304Z,97179.11
2018-05-29T03:44:58.776Z,97180.16
2018-05-29T03:47:27.100Z,97184.00
2018-05-29T03:49:54.560Z,97179.95
2018-05-29T03:52:21.992Z,97180.16
2018-05-29T03:54:50.020Z,97176.73
2018-05-29T03:57:17.514Z,97172.13
2018-05-29T03:59:45.674Z,97178.22
2018-05-29T04:02:13.113Z,97178.84
2018-05-29T04:04:40.567Z,97185.42
2018-05-29T04:07:07.991Z,97191.89
2018-05-29T04:09:35.441Z,97187.38
2018-05-29T04:12:02.879Z,97186.17
2018-05-29T04:14:30.372Z,97182.15
2018-05-29T04:16:57.874Z,97180.33
2018-05-29T04:19:25.353Z,97184.63
2018-05-29T04:21:52.926Z,97186.95
2018-05-29T04:24:20.404Z,97195.41
2018-05-29T04:26:47.908Z,97189.60
2018-05-29T04:29:15.437Z,97191.77
2018-05-29T04:31:43.442Z,97183.94
2018-05-29T04:34:10.906Z,97187.24
2018-05-29T04:36:38.887Z,97180.25
2018-05-29T04:39:06.365Z,97178.80
2018-05-29T04:41:33.797Z,97173.75
2018-05-29T04:44:01.259Z,97176.27
2018-05-29T04:46:28.651Z,97176.35
2018-05-29T04:48:57.097Z,97174.87
2018-05-29T04:51:24.538Z,97181.28
2018-05-29T04:53:52.600Z,97183.31
2018-05-29T04:56:20.124Z,97180.95
2018-05-29T04:58:47.562Z,97175.86
2018-05-29T05:01:14.994Z,97178.09
2018-05-29T05:03:43.099Z,97177.10
2018-05-29T05:06:10.524Z,97177.67
2018-05-29T05:08:39.351Z,97177.31
2018-05-29T05:11:06.816Z,97183.73
2018-05-29T05:13:34.218Z,97188.83
2018-05-29T05:16:01.697Z,97184.84
2018-05-29T05:18:29.100Z,97187.16
2018-05-29T05:20:56.894Z,97187.45
2018-05-29T05:23:24.316Z,97180.95
2018-05-29T05:25:51.784Z,97190.02
2018-05-29T05:28:19.245Z,97187.52
2018-05-29T05:30:46.739Z,97181.50
2018-05-29T05:33:14.166Z,97187.77
2018-05-29T05:35:41.562Z,97191.77
2018-05-29T05:38:09.003Z,97191.20
2018-05-29T05:40:36.430Z,97192.45
2018-05-29T05:43:03.837Z,97188.33
2018-05-29T05:45:31.258Z,97187.13
2018-05-29T05:47:58.801Z,97187.40
2018-05-29T05:50:26.456Z,97185.73
2018-05-29T05:52:53.884Z,97190.56
2018-05-29T05:55:21.350Z,97192.31
2018-05-29T05:57:48.812Z,97195.89
2018-05-29T06:00:16.263Z,97192.45
2018-05-29T06:02:43.708Z,97189.48
2018-05-29T06:05:11.166Z,97191.76
2018-05-29T06:07:38.600Z,97190.43
2018-05-29T06:10:06.137Z,97192.17
2018-05-29T06:12:33.570Z,97191.91
2018-05-29T06:15:01.040Z,97190.08
2018-05-29T06:17:28.434Z,97186.60
2018-05-29T06:19:56.007Z,97187.14
2018-05-29T06:22:23.438Z,97198.64
2018-05-29T06:24:50.898Z,97193.81
2018-05-29T06:27:18.344Z,97200.27
2018-05-29T06:29:45.783Z,97194.20
2018-05-29T06:32:13.227Z,97196.56
2018-05-29T06:34:40.664Z,97199.91
2018-05-29T06:37:08.159Z,97195.68
2018-05-29T06:39:35.628Z,97196.16
2018-05-29T06:42:06.811Z,97194.48
2018-05-29T06:44:35.465Z,97199.96
2018-05-29T06:47:02.863Z,97198.57
2018-05-29T06:49:32.447Z,97194.84
2018-05-29T06:51:59.929Z,97199.56
2018-05-29T06:54:27.710Z,97196.21
2018-05-29T06:56:55.197Z,97197.67
2018-05-29T06:59:22.636Z,97198.22
2018-05-29T07:01:51.290Z,97198.03
2018-05-29T07:04:18.718Z,97195.87
2018-05-29T07:06:46.227Z,97191.03
2018-05-29T07:09:28.175Z,97186.47
2018-05-29T07:11:55.657Z,97188.27
2018-05-29T07:14:24.944Z,97183.66
2018-05-29T07:16:52.583Z,97183.45
2018-05-29T07:19:20.043Z,97181.67
2018-05-29T07:21:47.499Z,97186.66
2018-05-29T07:24:14.924Z,97176.90
2018-05-29T07:26:43.170Z,97175.56
2018-05-29T07:29:11.847Z,97175.35
2018-05-29T07:31:39.324Z,97177.63
2018-05-29T07:34:06.833Z,97175.72
2018-05-29T07:36:34.296Z,97172.10
2018-05-29T07:39:02.368Z,97178.23
2018-05-29T07:41:29.806Z,97174.64
2018-05-29T07:43:57.280Z,97186.42
2018-05-29T07:46:24.716Z,97182.70
2018-05-29T07:48:52.185Z,97184.38
2018-05-29T07:51:19.626Z,97179.55
2018-05-29T07:53:47.950Z,97187.03
2018-05-29T07:56:15.357Z,97188.41
2018-05-29T07:58:42.807Z,97188.55
2018-05-29T08:01:10.298Z,97184.81
2018-05-29T08:03:38.240Z,97186.52
2018-05-29T08:06:05.723Z,97190.90
2018-05-29T08:08:33.919Z,97189.25
2018-05-29T08:11:01.340Z,97191.72
2018-05-29T08:13:28.743Z,97190.45
2018-05-29T08:15:56.520Z,97187.92
2018-05-29T08:18:23.963Z,97179.34
2018-05-29T08:20:51.410Z,97177.88
2018-05-29T08:23:18.964Z,97173.75
2018-05-29T08:25:46.598Z,97178.28
2018-05-29T08:28:14.097Z,97171.64
2018-05-29T08:30:41.605Z,97172.20
2018-05-29T08:33:09.049Z,97168.23
2018-05-29T08:35:36.505Z,97169.04
2018-05-29T08:38:04.011Z,97171.80
2018-05-29T08:40:31.592Z,97165.22
2018-05-29T08:42:59.046Z,97169.38
2018-05-29T08:45:26.522Z,97168.02
2018-05-29T08:47:54.341Z,97165.00
2018-05-29T08:50:21.812Z,97177.45
2018-05-29T08:52:49.280Z,97177.43
2018-05-29T08:55:16.720Z,97162.08
2018-05-29T08:57:44.182Z,97166.00
2018-05-29T09:00:11.582Z,97159.42
2018-05-29T09:02:39.246Z,97164.98
2018-05-29T09:05:06.640Z,97160.73
2018-05-29T09:07:34.082Z,97151.66
2018-05-29T09:10:01.606Z,97150.55
2018-05-29T09:12:30.059Z,97149.38
2018-05-29T09:14:58.241Z,97144.92
2018-05-29T09:17:25.652Z,97143.91
2018-05-29T09:19:53.177Z,97143.44
2018-05-29T09:22:20.559Z,97143.23
2018-05-29T09:24:48.028Z,97152.12
2018-05-29T09:27:15.516Z,97145.05
2018-05-29T09:29:43.546Z,97144.28
2018-05-29T09:32:10.989Z,97143.93
2018-05-29T09:34:38.489Z,97142.13
2018-05-29T09:37:05.942Z,97141.63
2018-05-29T09:39:33.522Z,97144.32
2018-05-29T09:42:00.971Z,97134.98
2018-05-29T09:44:28.453Z,97137.66
2018-05-29T09:46:55.873Z,97136.97
2018-05-29T09:49:23.442Z,97127.63
2018-05-29T09:51:51.561Z,97128.32
2018-05-29T09:54:19.078Z,97120.08
2018-05-29T09:56:46.557Z,97118.27
2018-05-29T09:59:13.986Z,97125.80
2018-05-29T10:01:41.497Z,97123.14
2018-05-29T10:04:09.001Z,97118.80
2018-05-29T10:06:39.112Z,97121.84
2018-05-29T10:09:06.616Z,97112.73
2018-05-29T10:11:35.144Z,97117.36
2018-05-29T10:14:02.623Z,97105.34
2018-05-29T10:16:30.093Z,97102.72
2018-05-29T10:18:58.376Z,97097.45
2018-05-29T10:21:25.891Z,97098.91
2018-05-29T10:23:53.542Z,97097.63
2018-05-29T10:26:21.052Z,97094.69
2018-05-29T10:28:48.499Z,97090.37
2018-05-29T10:31:17.107Z,97092.27
2018-05-29T10:33:44.785Z,97092.59
2018-05-29T10:36:13.611Z,97090.74
2018-05-29T10:38:41.075Z,97092.15
2018-05-29T10:41:10.819Z,97092.19
2018-05-29T10:43:38.261Z,97085.11
2018-05-29T10:46:05.731Z,97086.54
2018-05-29T10:48:34.198Z,97082.89
2018-05-29T10:51:01.662Z,97090.66
2018-05-29T10:53:29.594Z,97086.50
2018-05-29T10:55:57.023Z,97088.46
2018-05-29T10:58:24.463Z,97086.38
2018-05-29T11:00:51.882Z,97078.12
2018-05-29T11:03:19.327Z,97085.47
2018-05-29T11:05:46.736Z,97080.63
2018-05-29T11:08:14.786Z,97077.11
2018-05-29T11:10:42.400Z,97075.30
2018-05-29T11:13:09.840Z,97077.16
2018-05-29T11:15:37.251Z,97071.91
2018-05-29T11:18:05.520Z,97071.95
2018-05-29T11:20:33.008Z,97074.77
2018-05-29T11:23:00.528Z,97067.63
2018-05-29T11:25:27.962Z,97070.25
2018-05-29T11:27:55.440Z,97061.89
2018-05-29T11:30:22.976Z,97070.45
2018-05-29T11:32:50.509Z,97062.31
2018-05-29T11:35:17.937Z,97063.91
2018-05-29T11:37:45.997Z,97064.17
2018-05-29T11:40:13.413Z,97060.69
2018-05-29T11:42:40.895Z,97055.48
2018-05-29T11:45:08.376Z,97054.46
2018-05-29T11:47:35.860Z,97047.21
2018-05-29T11:50:03.335Z,97047.97
2018-05-29T11:52:30.801Z,97040.29
2018-05-29T11:54:58.327Z,97039.16
2018-05-29T11:57:25.715Z,97043.42
2018-05-29T11:59:53.152Z,97043.20
2018-05-29T12:02:20.693Z,97039.17
2018-05-29T12:04:48.143Z,97032.40
2018-05-29T12:07:15.698Z,97020.19
2018-05-29T12:09:43.228Z,97022.90
2018-05-29T12:12:22.464Z,97019.70
2018-05-29T12:14:49.944Z,97016.53
2018-05-29T12:17:17.342Z,97016.91
2018-05-29T12:19:44.755Z,97008.09
2018-05-29T12:22:12.178Z,97004.20
2018-05-29T12:24:39.638Z,96990.20
2018-05-29T12:27:07.126Z,96995.88
2018-05-29T12:29:35.263Z,96995.48
2018-05-29T12:32:02.737Z,96994.80
2018-05-29T12:34:31.456Z,96987.73
2018-05-29T12:36:59.082Z,96979.64
2018-05-29T12:39:26.488Z,96986.17
2018-05-29T12:41:55.300Z,96975.57
2018-05-29T12:44:22.761Z,96976.73
2018-05-29T12:46:50.172Z,96970.09
2018-05-29T12:49:17.654Z,96974.18
2018-05-29T12:51:45.123Z,96965.34
2018-05-29T12:54:12.596Z,96968.09
2018-05-29T12:56:40.066Z,96968.48
2018-05-29T12:59:07.580Z,96969.87
2018-05-29T13:01:35.088Z,96958.42
2018-05-29T13:04:02.536Z,96954.88
2018-05-29T13:06:31.056Z,96955.21
2018-05-29T13:08:58.463Z,96952.59
2018-05-29T13:11:25.945Z,96951.87
2018-05-29T13:13:55.663Z,96950.42
2018-05-29T13:16:23.125Z,96946.56
2018-05-29T13:18:50.583Z,96939.10
2018-05-29T13:21:18.056Z,96937.27
2018-05-29T13:23:45.575Z,96939.28
2018-05-29T13:26:13.018Z,96936.08
2018-05-29T13:28:40.699Z,96931.66
2018-05-29T13:31:08.193Z,96925.41
2018-05-29T13:33:35.734Z,96917.77
2018-05-29T13:36:03.212Z,96917.98
2018-05-29T13:38:30.676Z,96920.08
2018-05-29T13:40:58.114Z,96911.31
2018-05-29T13:43:29.314Z,96917.88
2018-05-29T13:45:56.794Z,96912.91
2018-05-29T13:48:24.292Z,96908.08
2018-05-29T13:50:51.786Z,96908.44
2018-05-29T13:53:19.239Z,96905.34
2018-05-29T13:55:46.706Z,96903.47
2018-05-29T13:58:14.225Z,96903.92
2018-05-29T14:00:41.628Z,96900.70
2018-05-29T14:03:09.937Z,96898.52
2018-05-29T14:05:37.341Z,96895.83
2018-05-29T14:08:04.818Z,96892.12
2018-05-29T14:10:32.247Z,96886.89
2018-05-29T14:13:00.740Z,96879.55
2018-05-29T14:15:28.236Z,96872.28
2018-05-29T14:17:55.281Z,96866.76
2018-05-29T14:20:22.804Z,96870.73
2018-05-29T14:22:50.258Z,96871.34
2018-05-29T14:25:18.272Z,96874.09
2018-05-29T14:27:45.795Z,96866.09
2018-05-29T14:30:13.236Z,96871.08
2018-05-29T14:32:40.749Z,96870.34
2018-05-29T14:35:10.476Z,96870.16
2018-05-29T14:37:37.971Z,96865.69
2018-05-29T14:40:04.963Z,96864.01
2018-05-29T14:42:31.953Z,96852.69
2018-05-29T14:45:00.566Z,96851.83
2018-05-29T14:47:27.576Z,96846.34
2018-05-29T14:49:54.596Z,96855.88
2018-05-29T14:52:21.613Z,96850.17
2018-05-29T14:54:48.630Z,96843.37
2018-05-29T14:57:15.639Z,96834.62
2018-05-29T14:59:42.648Z,96843.76
2018-05-29T15:02:09.655Z,96844.80
2018-05-29T15:04:37.109Z,96840.66
2018-05-29T15:07:04.519Z,96842.62
2018-05-29T15:09:32.007Z,96841.23
2018-05-29T15:11:59.486Z,96848.92
2018-05-29T15:14:27.206Z,96847.02
2018-05-29T15:16:54.681Z,96842.80
2018-05-29T15:19:22.805Z,96844.17
2018-05-29T15:21:49.774Z,96840.40
2018-05-29T15:24:17.205Z,96839.45
2018-05-29T15:26:45.543Z,96831.52
2018-05-29T15:29:12.527Z,96825.66
2018-05-29T15:31:39.479Z,96815.43
2018-05-29T15:34:06.533Z,96819.41
2018-05-29T15:36:33.524Z,96814.55
2018-05-29T15:39:00.685Z,96807.20
2018-05-29T15:41:27.744Z,96809.69
2018-05-29T15:43:54.726Z,96806.08
2018-05-29T15:46:21.752Z,96812.11
2018-05-29T15:48:48.728Z,96815.09
2018-05-29T15:51:15.728Z,96814.67
2018-05-29T15:53:42.853Z,96815.19
2018-05-29T15:56:10.441Z,96814.45
2018-05-29T15:58:37.673Z,96812.39
2018-05-29T16:01:05.155Z,96806.91
2018-05-29T16:03:35.109Z,96807.34
2018-05-29T16:06:02.180Z,96815.72
2018-05-29T16:08:29.777Z,96817.67
2018-05-29T16:10:57.374Z,96816.11
2018-05-29T16:13:24.895Z,96821.18
2018-05-29T16:15:53.233Z,96814.09
2018-05-29T16:18:20.729Z,96818.31
2018-05-29T16:20:48.428Z,96808.93
2018-05-29T16:23:15.976Z,96813.23
2018-05-29T16:25:43.524Z,96809.98
2018-05-29T16:28:11.017Z,96817.97
2018-05-29T16:30:39.804Z,96807.13
2018-05-29T16:33:07.278Z,96805.70
2018-05-29T16:35:34.785Z,96802.84
2018-05-29T16:38:03.109Z,96794.27
2018-05-29T16:40:30.731Z,96803.14
2018-05-29T16:42:58.202Z,96801.02
2018-05-29T16:45:25.620Z,96800.78
2018-05-29T16:47:52.685Z,96801.86
2018-05-29T16:50:20.127Z,96799.67
2018-05-29T16:52:47.557Z,96804.47
2018-05-29T16:55:14.657Z,96814.24
2018-05-29T16:57:42.234Z,96804.50
2018-05-29T17:00:09.712Z,96806.53
2018-05-29T17:02:36.652Z,96802.51
2018-05-29T17:05:04.186Z,96794.48
2018-05-29T17:07:38.743Z,96793.23
2018-05-29T17:10:06.309Z,96788.62
2018-05-29T17:12:34.962Z,96795.76
2018-05-29T17:15:02.566Z,96793.28
2018-05-29T17:17:29.996Z,96801.94
2018-05-29T17:19:57.485Z,96801.16
2018-05-29T17:22:24.467Z,96807.63
2018-05-29T17:24:51.935Z,96810.03
2018-05-29T17:27:19.452Z,96813.77
2018-05-29T17:29:47.330Z,96819.89
2018-05-29T17:32:32.301Z,96816.91
2018-05-29T17:35:01.849Z,96826.28
2018-05-29T17:37:28.980Z,96813.75
2018-05-29T17:39:55.998Z,96812.14
2018-05-29T17:42:23.405Z,96819.70
2018-05-29T17:44:51.884Z,96816.66
2018-05-29T17:47:19.532Z,96818.47
2018-05-29T17:49:46.501Z,96821.91
2018-05-29T17:52:13.541Z,96818.16
2018-05-29T17:54:40.774Z,96822.13
2018-05-29T17:57:08.200Z,96829.26
2018-05-29T17:59:35.867Z,96840.88
2018-05-29T18:02:02.852Z,96839.88
2018-05-29T18:04:29.861Z,96847.77
2018-05-29T18:06:56.860Z,96843.58
2018-05-29T18:09:26.800Z,96848.80
2018-05-29T18:11:53.859Z,96854.45
2018-05-29T18:14:20.852Z,96847.31
2018-05-29T18:16:47.951Z,96852.84
2018-05-29T18:19:15.344Z,96854.84
2018-05-29T18:21:48.394Z,96846.30
2018-05-29T18:24:15.908Z,96845.88
2018-05-29T18:26:42.897Z,96846.13
2018-05-29T18:29:09.893Z,96841.61
2018-05-29T18:31:36.923Z,96848.50
2018-05-29T18:34:04.371Z,96845.00
2018-05-29T18:36:31.847Z,96847.47
2018-05-29T18:38:59.298Z,96851.00
2018-05-29T18:41:26.777Z,96851.13
2018-05-29T18:43:54.330Z,96852.27
2018-05-29T18:46:22.396Z,96854.13
2018-05-29T18:48:49.841Z,96864.16
2018-05-29T18:51:17.277Z,96872.31
2018-05-29T18:53:44.747Z,96872.31
2018-05-29T18:56:12.227Z,96866.27
2018-05-29T18:58:41.679Z,96875.80
2018-05-29T19:01:09.166Z,96870.90
2018-05-29T19:03:36.684Z,96876.96
2018-05-29T19:06:04.479Z,96872.89
2018-05-29T19:08:31.519Z,96877.31
2018-05-29T19:10:58.960Z,96886.47
2018-05-29T19:13:26.455Z,96884.89
2018-05-29T19:15:53.441Z,96886.67
2018-05-29T19:18:20.435Z,96899.70
2018-05-29T19:20:47.427Z,96910.84
2018-05-29T19:23:14.450Z,96916.31
2018-05-29T19:25:41.599Z,96926.58
2018-05-29T19:28:09.108Z,96937.47
2018-05-29T19:30:36.638Z,96945.95
2018-05-29T19:33:04.088Z,96942.19
2018-05-29T19:35:31.513Z,96948.75
2018-05-29T19:37:58.950Z,96959.00
2018-05-29T19:40:26.427Z,96962.68
2018-05-29T19:42:53.866Z,96967.83
2018-05-29T19:45:21.572Z,96967.68
2018-05-29T19:47:49.006Z,96971.89
2018-05-29T19:50:17.098Z,96974.61
2018-05-29T19:52:44.620Z,96981.31
2018-05-29T19:55:11.607Z,96977.40
2018-05-29T19:57:38.644Z,96981.77
2018-05-29T20:00:06.928Z,96983.37
2018-05-29T20:02:33.985Z,96977.92
2018-05-29T20:05:01.122Z,96981.55
2018-05-29T20:07:28.111Z,96978.02
2018-05-29T20:09:55.545Z,96979.45
2018-05-29T20:12:22.962Z,96983.07
2018-05-29T20:14:50.409Z,96989.97
2018-05-29T20:17:18.891Z,96991.47
2018-05-29T20:19:46.352Z,96991.37
2018-05-29T20:22:13.768Z,97006.52
2018-05-29T20:24:41.181Z,97015.06
2018-05-29T20:27:08.658Z,97029.30
2018-05-29T20:29:36.153Z,97034.28
2018-05-29T20:32:03.629Z,97032.73
2018-05-29T20:34:31.346Z,97041.73
2018-05-29T20:36:59.755Z,97027.89
2018-05-29T20:39:27.999Z,97051.89
2018-05-29T20:41:55.455Z,97103.69
2018-05-29T20:44:22.918Z,97112.27
2018-05-29T20:46:50.361Z,97116.09
2018-05-29T20:49:17.813Z,97109.81
2018-05-29T20:51:45.231Z,97099.86
2018-05-29T20:54:12.698Z,97100.41
2018-05-29T20:56:40.145Z,97107.06
2018-05-29T20:59:07.744Z,97106.02
2018-05-29T21:01:35.149Z,97101.38
2018-05-29T21:04:02.626Z,97096.98
2018-05-29T21:06:30.083Z,97095.55
2018-05-29T21:08:57.556Z,97094.03
2018-05-29T21:11:24.983Z,97085.78
2018-05-29T21:13:52.458Z,97091.32
2018-05-29T21:16:22.496Z,97087.55
2018-05-29T21:18:50.008Z,97085.06
2018-05-29T21:21:17.466Z,97075.80
2018-05-29T21:23:44.900Z,97068.48
2018-05-29T21:26:12.480Z,97070.43
2018-05-29T21:28:39.922Z,97061.29
2018-05-29T21:31:08.124Z,97065.43
2018-05-29T21:33:35.588Z,97061.72
2018-05-29T21:36:03.034Z,97064.80
2018-05-29T21:38:30.484Z,97064.61
2018-05-29T21:40:57.927Z,97061.81
2018-05-29T21:43:25.405Z,97059.76
2018-05-29T21:45:52.833Z,97062.38
2018-05-29T21:48:20.231Z,97061.88
2018-05-29T21:50:47.703Z,97060.32
2018-05-29T21:53:15.967Z,97060.63
2018-05-29T21:55:43.370Z,97058.47
2018-05-29T21:58:10.824Z,97051.95
2018-05-29T22:00:38.283Z,97059.52
2018-05-29T22:03:05.754Z,97058.78
2018-05-29T22:05:35.806Z,97057.50
2018-05-29T22:08:03.251Z,97059.13
2018-05-29T22:10:30.674Z,97058.23
2018-05-29T22:12:58.200Z,97058.42
2018-05-29T22:15:26.677Z,97056.14
2018-05-29T22:17:55.334Z,97049.41
2018-05-29T22:20:22.773Z,97049.86
2018-05-29T22:22:50.204Z,97051.25
2018-05-29T22:25:17.611Z,97043.36
2018-05-29T22:27:45.114Z,97045.33
2018-05-29T22:30:12.589Z,97045.42
2018-05-29T22:32:40.039Z,97042.89
2018-05-29T22:35:07.473Z,97038.95
2018-05-29T22:37:34.977Z,97047.82
2018-05-29T22:40:02.443Z,97042.33
2018-05-29T22:42:29.881Z,97039.95
2018-05-29T22:44:57.296Z,97042.05
2018-05-29T22:47:25.695Z,97051.49
2018-05-29T22:49:53.159Z,97058.11
2018-05-29T22:52:20.583Z,97054.95
2018-05-29T22:54:48.022Z,97059.56
2018-05-29T22:57:15.482Z,97063.79
2018-05-29T22:59:42.944Z,97061.80
2018-05-29T23:02:10.381Z,97068.09
2018-05-29T23:04:37.801Z,97067.13
2018-05-29T23:07:06.035Z,97069.11
2018-05-29T23:09:33.488Z,97065.77
2018-05-29T23:12:00.929Z,97067.56
2018-05-29T23:14:28.413Z,97079.13
2018-05-29T23:16:55.840Z,97078.91
2018-05-29T23:19:23.248Z,97075.11
2018-05-29T23:21:50.720Z,97083.75
2018-05-29T23:24:18.582Z,97077.63
2018-05-29T23:26:46.945Z,97078.49
2018-05-29T23:29:14.439Z,97072.10
2018-05-29T23:31:41.908Z,97075.94
2018-05-29T23:34:09.376Z,97076.20
2018-05-29T23:36:36.823Z,97074.01
2018-05-29T23:39:04.253Z,97074.01
2018-05-29T23:41:31.708Z,97070.80
2018-05-29T23:43:59.373Z,97073.70
2018-05-29T23:46:26.827Z,97077.27
2018-05-29T23:48:55.456Z,97064.58
2018-05-29T23:51:22.842Z,97062.17
2018-05-29T23:53:50.281Z,97065.91
2018-05-29T23:56:17.711Z,97065.71
2018-05-29T23:58:45.139Z,97063.95
